sensor_id;sensor_type;location;lat;lon;timestamp;temperature;humidity
2409;DHT22;8463;48.094;7.970;2022-08-21T00:01:15;17.20;54.10
2409;DHT22;8463;48.094;7.970;2022-08-21T00:03:41;17.10;54.30
2409;DHT22;8463;48.094;7.970;2022-08-21T00:06:07;17.10;54.10
2409;DHT22;8463;48.094;7.970;2022-08-21T00:08:33;17.10;54.20
2409;DHT22;8463;48.094;7.970;2022-08-21T00:10:59;17.20;54.80
2409;DHT22;8463;48.094;7.970;2022-08-21T00:13:25;17.20;53.60
2409;DHT22;8463;48.094;7.970;2022-08-21T00:15:50;17.10;53.70
2409;DHT22;8463;48.094;7.970;2022-08-21T00:18:17;17.10;54.20
2409;DHT22;8463;48.094;7.970;2022-08-21T00:20:43;17.00;54.00
2409;DHT22;8463;48.094;7.970;2022-08-21T00:23:10;17.00;54.80
2409;DHT22;8463;48.094;7.970;2022-08-21T00:28:03;16.80;54.30
2409;DHT22;8463;48.094;7.970;2022-08-21T00:30:30;16.80;55.30
2409;DHT22;8463;48.094;7.970;2022-08-21T00:32:57;16.70;55.60
2409;DHT22;8463;48.094;7.970;2022-08-21T00:35:27;16.60;55.40
2409;DHT22;8463;48.094;7.970;2022-08-21T00:37:53;16.60;55.50
2409;DHT22;8463;48.094;7.970;2022-08-21T00:40:30;16.50;55.90
2409;DHT22;8463;48.094;7.970;2022-08-21T00:42:57;16.50;55.50
2409;DHT22;8463;48.094;7.970;2022-08-21T00:45:24;16.50;56.00
2409;DHT22;8463;48.094;7.970;2022-08-21T00:47:51;16.50;56.90
2409;DHT22;8463;48.094;7.970;2022-08-21T00:50:17;16.50;56.00
2409;DHT22;8463;48.094;7.970;2022-08-21T00:52:43;16.50;56.60
2409;DHT22;8463;48.094;7.970;2022-08-21T00:55:11;16.40;55.60
2409;DHT22;8463;48.094;7.970;2022-08-21T00:57:42;16.50;55.90
2409;DHT22;8463;48.094;7.970;2022-08-21T01:00:13;16.40;56.30
2409;DHT22;8463;48.094;7.970;2022-08-21T01:02:40;16.50;56.10
2409;DHT22;8463;48.094;7.970;2022-08-21T01:05:07;16.40;55.80
2409;DHT22;8463;48.094;7.970;2022-08-21T01:07:33;16.40;56.30
2409;DHT22;8463;48.094;7.970;2022-08-21T01:09:58;16.40;55.80
2409;DHT22;8463;48.094;7.970;2022-08-21T01:12:25;16.40;56.10
2409;DHT22;8463;48.094;7.970;2022-08-21T01:14:52;16.40;55.80
2409;DHT22;8463;48.094;7.970;2022-08-21T01:17:19;16.30;55.90
2409;DHT22;8463;48.094;7.970;2022-08-21T01:19:46;16.30;56.00
2409;DHT22;8463;48.094;7.970;2022-08-21T01:22:12;16.20;55.80
2409;DHT22;8463;48.094;7.970;2022-08-21T01:24:38;16.20;55.60
2409;DHT22;8463;48.094;7.970;2022-08-21T01:27:04;16.20;56.20
2409;DHT22;8463;48.094;7.970;2022-08-21T01:29:55;16.10;56.60
2409;DHT22;8463;48.094;7.970;2022-08-21T01:32:23;16.10;55.60
2409;DHT22;8463;48.094;7.970;2022-08-21T01:34:50;16.10;56.10
2409;DHT22;8463;48.094;7.970;2022-08-21T01:37:16;16.20;56.80
2409;DHT22;8463;48.094;7.970;2022-08-21T01:39:42;16.10;55.70
2409;DHT22;8463;48.094;7.970;2022-08-21T01:42:08;16.10;56.20
2409;DHT22;8463;48.094;7.970;2022-08-21T01:44:34;16.00;56.50
2409;DHT22;8463;48.094;7.970;2022-08-21T01:47:03;15.90;56.40
2409;DHT22;8463;48.094;7.970;2022-08-21T01:49:29;15.90;57.40
2409;DHT22;8463;48.094;7.970;2022-08-21T01:51:54;15.80;57.30
2409;DHT22;8463;48.094;7.970;2022-08-21T01:54:20;15.70;56.60
2409;DHT22;8463;48.094;7.970;2022-08-21T01:56:49;15.80;56.80
2409;DHT22;8463;48.094;7.970;2022-08-21T01:59:15;15.70;57.30
2409;DHT22;8463;48.094;7.970;2022-08-21T02:01:41;15.60;57.20
2409;DHT22;8463;48.094;7.970;2022-08-21T02:04:09;15.60;57.20
2409;DHT22;8463;48.094;7.970;2022-08-21T02:06:35;15.60;58.20
2409;DHT22;8463;48.094;7.970;2022-08-21T02:09:03;15.60;57.90
2409;DHT22;8463;48.094;7.970;2022-08-21T02:11:32;15.70;56.80
2409;DHT22;8463;48.094;7.970;2022-08-21T02:13:57;15.60;56.70
2409;DHT22;8463;48.094;7.970;2022-08-21T02:16:23;15.60;57.20
2409;DHT22;8463;48.094;7.970;2022-08-21T02:18:49;15.60;57.30
2409;DHT22;8463;48.094;7.970;2022-08-21T02:23:40;15.60;56.70
2409;DHT22;8463;48.094;7.970;2022-08-21T02:26:07;15.50;58.00
2409;DHT22;8463;48.094;7.970;2022-08-21T02:28:34;15.40;58.20
2409;DHT22;8463;48.094;7.970;2022-08-21T02:30:59;15.30;58.90
2409;DHT22;8463;48.094;7.970;2022-08-21T02:33:26;15.30;59.40
2409;DHT22;8463;48.094;7.970;2022-08-21T02:35:52;15.30;59.50
2409;DHT22;8463;48.094;7.970;2022-08-21T02:38:23;15.30;58.90
2409;DHT22;8463;48.094;7.970;2022-08-21T02:40:50;15.40;57.60
2409;DHT22;8463;48.094;7.970;2022-08-21T02:43:17;15.30;58.80
2409;DHT22;8463;48.094;7.970;2022-08-21T02:45:44;15.30;59.30
2409;DHT22;8463;48.094;7.970;2022-08-21T02:48:12;15.30;59.40
2409;DHT22;8463;48.094;7.970;2022-08-21T02:50:45;15.30;58.60
2409;DHT22;8463;48.094;7.970;2022-08-21T02:53:12;15.40;58.90
2409;DHT22;8463;48.094;7.970;2022-08-21T02:55:42;15.40;58.00
2409;DHT22;8463;48.094;7.970;2022-08-21T02:58:08;15.40;58.10
2409;DHT22;8463;48.094;7.970;2022-08-21T03:00:35;15.40;56.60
2409;DHT22;8463;48.094;7.970;2022-08-21T03:03:01;15.40;57.00
2409;DHT22;8463;48.094;7.970;2022-08-21T03:05:29;15.30;57.70
2409;DHT22;8463;48.094;7.970;2022-08-21T03:07:59;15.30;57.20
2409;DHT22;8463;48.094;7.970;2022-08-21T03:10:26;15.10;57.40
2409;DHT22;8463;48.094;7.970;2022-08-21T03:12:53;15.10;58.00
2409;DHT22;8463;48.094;7.970;2022-08-21T03:15:22;15.10;58.00
2409;DHT22;8463;48.094;7.970;2022-08-21T03:17:50;15.10;58.40
2409;DHT22;8463;48.094;7.970;2022-08-21T03:20:19;15.10;58.40
2409;DHT22;8463;48.094;7.970;2022-08-21T03:22:45;15.00;58.10
2409;DHT22;8463;48.094;7.970;2022-08-21T03:25:11;15.00;58.50
2409;DHT22;8463;48.094;7.970;2022-08-21T03:27:37;14.90;58.80
2409;DHT22;8463;48.094;7.970;2022-08-21T03:30:05;15.00;58.30
2409;DHT22;8463;48.094;7.970;2022-08-21T03:32:31;14.90;58.50
2409;DHT22;8463;48.094;7.970;2022-08-21T03:34:57;14.90;58.70
2409;DHT22;8463;48.094;7.970;2022-08-21T03:37:23;15.00;58.90
2409;DHT22;8463;48.094;7.970;2022-08-21T03:39:50;14.90;57.90
2409;DHT22;8463;48.094;7.970;2022-08-21T03:42:15;14.90;58.60
2409;DHT22;8463;48.094;7.970;2022-08-21T03:47:07;14.80;58.80
2409;DHT22;8463;48.094;7.970;2022-08-21T03:49:33;14.80;58.10
2409;DHT22;8463;48.094;7.970;2022-08-21T03:52:00;14.80;58.60
2409;DHT22;8463;48.094;7.970;2022-08-21T03:56:52;14.60;59.50
2409;DHT22;8463;48.094;7.970;2022-08-21T03:59:17;14.60;60.80
2409;DHT22;8463;48.094;7.970;2022-08-21T04:01:54;14.60;60.10
2409;DHT22;8463;48.094;7.970;2022-08-21T04:04:20;14.60;60.50
2409;DHT22;8463;48.094;7.970;2022-08-21T04:06:45;14.60;59.60
2409;DHT22;8463;48.094;7.970;2022-08-21T04:09:11;14.60;60.20
2409;DHT22;8463;48.094;7.970;2022-08-21T04:11:37;14.60;60.50
2409;DHT22;8463;48.094;7.970;2022-08-21T04:14:03;14.70;60.70
2409;DHT22;8463;48.094;7.970;2022-08-21T04:16:28;14.70;59.50
2409;DHT22;8463;48.094;7.970;2022-08-21T04:18:54;14.60;58.80
2409;DHT22;8463;48.094;7.970;2022-08-21T04:21:19;14.60;59.50
2409;DHT22;8463;48.094;7.970;2022-08-21T04:23:45;14.60;59.30
2409;DHT22;8463;48.094;7.970;2022-08-21T04:26:11;14.70;59.70
2409;DHT22;8463;48.094;7.970;2022-08-21T04:28:36;14.60;59.80
2409;DHT22;8463;48.094;7.970;2022-08-21T04:31:02;14.60;59.80
2409;DHT22;8463;48.094;7.970;2022-08-21T04:33:27;14.60;59.60
2409;DHT22;8463;48.094;7.970;2022-08-21T04:35:53;14.60;58.90
2409;DHT22;8463;48.094;7.970;2022-08-21T04:38:20;14.60;59.60
2409;DHT22;8463;48.094;7.970;2022-08-21T04:40:48;14.50;60.00
2409;DHT22;8463;48.094;7.970;2022-08-21T04:43:14;14.50;60.20
2409;DHT22;8463;48.094;7.970;2022-08-21T04:45:45;14.50;60.30
2409;DHT22;8463;48.094;7.970;2022-08-21T04:48:15;14.50;60.10
2409;DHT22;8463;48.094;7.970;2022-08-21T04:50:50;14.50;60.60
2409;DHT22;8463;48.094;7.970;2022-08-21T04:53:40;14.60;58.80
2409;DHT22;8463;48.094;7.970;2022-08-21T04:56:13;14.60;58.10
2409;DHT22;8463;48.094;7.970;2022-08-21T04:58:41;14.50;58.30
2409;DHT22;8463;48.094;7.970;2022-08-21T05:01:13;14.50;59.30
2409;DHT22;8463;48.094;7.970;2022-08-21T05:06:08;14.50;58.50
2409;DHT22;8463;48.094;7.970;2022-08-21T05:08:37;14.50;59.40
2409;DHT22;8463;48.094;7.970;2022-08-21T05:11:03;14.40;60.20
2409;DHT22;8463;48.094;7.970;2022-08-21T05:15:56;14.30;60.60
2409;DHT22;8463;48.094;7.970;2022-08-21T05:18:22;14.30;61.30
2409;DHT22;8463;48.094;7.970;2022-08-21T05:20:47;14.20;61.90
2409;DHT22;8463;48.094;7.970;2022-08-21T05:23:14;14.30;61.10
2409;DHT22;8463;48.094;7.970;2022-08-21T05:25:40;14.30;61.50
2409;DHT22;8463;48.094;7.970;2022-08-21T05:28:06;14.30;61.40
2409;DHT22;8463;48.094;7.970;2022-08-21T05:30:33;14.40;60.90
2409;DHT22;8463;48.094;7.970;2022-08-21T05:33:00;14.50;59.60
2409;DHT22;8463;48.094;7.970;2022-08-21T05:35:30;14.60;59.90
2409;DHT22;8463;48.094;7.970;2022-08-21T05:37:57;14.60;60.00
2409;DHT22;8463;48.094;7.970;2022-08-21T05:40:24;14.60;60.00
2409;DHT22;8463;48.094;7.970;2022-08-21T05:42:50;14.60;60.10
2409;DHT22;8463;48.094;7.970;2022-08-21T05:45:16;14.70;59.80
2409;DHT22;8463;48.094;7.970;2022-08-21T05:47:42;14.80;60.60
2409;DHT22;8463;48.094;7.970;2022-08-21T05:50:08;14.90;59.30
2409;DHT22;8463;48.094;7.970;2022-08-21T05:52:34;15.00;59.50
2409;DHT22;8463;48.094;7.970;2022-08-21T05:55:00;15.10;58.30
2409;DHT22;8463;48.094;7.970;2022-08-21T05:57:25;15.20;58.30
2409;DHT22;8463;48.094;7.970;2022-08-21T05:59:52;15.20;58.70
2409;DHT22;8463;48.094;7.970;2022-08-21T06:02:19;15.50;56.60
2409;DHT22;8463;48.094;7.970;2022-08-21T06:07:11;15.80;55.70
2409;DHT22;8463;48.094;7.970;2022-08-21T06:09:37;15.90;55.40
2409;DHT22;8463;48.094;7.970;2022-08-21T06:12:11;16.00;55.20
2409;DHT22;8463;48.094;7.970;2022-08-21T06:14:38;16.20;53.50
2409;DHT22;8463;48.094;7.970;2022-08-21T06:17:09;16.20;53.60
2409;DHT22;8463;48.094;7.970;2022-08-21T06:19:35;16.30;53.60
2409;DHT22;8463;48.094;7.970;2022-08-21T06:22:02;16.40;52.80
2409;DHT22;8463;48.094;7.970;2022-08-21T06:24:28;16.70;51.70
2409;DHT22;8463;48.094;7.970;2022-08-21T06:26:54;16.80;50.10
2409;DHT22;8463;48.094;7.970;2022-08-21T06:29:20;16.80;50.00
2409;DHT22;8463;48.094;7.970;2022-08-21T06:31:48;17.00;49.10
2409;DHT22;8463;48.094;7.970;2022-08-21T06:36:40;17.20;47.20
2409;DHT22;8463;48.094;7.970;2022-08-21T06:39:06;17.30;48.00
2409;DHT22;8463;48.094;7.970;2022-08-21T06:41:33;17.40;47.50
2409;DHT22;8463;48.094;7.970;2022-08-21T06:43:58;17.40;47.30
2409;DHT22;8463;48.094;7.970;2022-08-21T06:46:26;17.60;47.60
2409;DHT22;8463;48.094;7.970;2022-08-21T06:48:52;17.70;46.20
2409;DHT22;8463;48.094;7.970;2022-08-21T06:51:18;17.80;45.70
2409;DHT22;8463;48.094;7.970;2022-08-21T06:53:44;17.90;45.00
2409;DHT22;8463;48.094;7.970;2022-08-21T06:56:10;17.90;45.40
2409;DHT22;8463;48.094;7.970;2022-08-21T06:58:35;18.20;43.80
2409;DHT22;8463;48.094;7.970;2022-08-21T07:01:02;18.20;44.10
2409;DHT22;8463;48.094;7.970;2022-08-21T07:03:32;18.50;41.50
2409;DHT22;8463;48.094;7.970;2022-08-21T07:05:58;18.50;41.30
2409;DHT22;8463;48.094;7.970;2022-08-21T07:08:27;18.80;41.00
2409;DHT22;8463;48.094;7.970;2022-08-21T07:10:55;19.00;38.60
2409;DHT22;8463;48.094;7.970;2022-08-21T07:13:21;19.30;38.10
2409;DHT22;8463;48.094;7.970;2022-08-21T07:15:47;19.50;35.50
2409;DHT22;8463;48.094;7.970;2022-08-21T07:18:14;19.60;35.10
2409;DHT22;8463;48.094;7.970;2022-08-21T07:20:41;19.80;34.20
2409;DHT22;8463;48.094;7.970;2022-08-21T07:23:12;19.70;33.10
2409;DHT22;8463;48.094;7.970;2022-08-21T07:25:39;19.90;32.80
2409;DHT22;8463;48.094;7.970;2022-08-21T07:30:31;20.30;31.30
2409;DHT22;8463;48.094;7.970;2022-08-21T07:32:57;20.10;30.00
2409;DHT22;8463;48.094;7.970;2022-08-21T07:35:23;20.40;32.00
2409;DHT22;8463;48.094;7.970;2022-08-21T07:40:16;20.80;28.60
2409;DHT22;8463;48.094;7.970;2022-08-21T07:42:48;20.60;27.60
2409;DHT22;8463;48.094;7.970;2022-08-21T07:45:18;20.60;28.50
2409;DHT22;8463;48.094;7.970;2022-08-21T07:47:44;20.60;28.10
2409;DHT22;8463;48.094;7.970;2022-08-21T07:50:11;20.50;27.10
2409;DHT22;8463;48.094;7.970;2022-08-21T07:52:38;20.50;28.60
2409;DHT22;8463;48.094;7.970;2022-08-21T07:55:05;20.50;27.90
2409;DHT22;8463;48.094;7.970;2022-08-21T07:57:30;20.80;28.00
2409;DHT22;8463;48.094;7.970;2022-08-21T07:59:56;21.00;25.90
2409;DHT22;8463;48.094;7.970;2022-08-21T08:02:26;21.40;23.90
2409;DHT22;8463;48.094;7.970;2022-08-21T08:04:52;21.50;22.50
2409;DHT22;8463;48.094;7.970;2022-08-21T08:07:17;21.70;22.60
2409;DHT22;8463;48.094;7.970;2022-08-21T08:09:43;21.60;22.50
2409;DHT22;8463;48.094;7.970;2022-08-21T08:12:09;21.70;22.60
2409;DHT22;8463;48.094;7.970;2022-08-21T08:14:35;21.90;22.40
2409;DHT22;8463;48.094;7.970;2022-08-21T08:17:01;22.00;21.00
2409;DHT22;8463;48.094;7.970;2022-08-21T08:21:54;21.80;23.00
2409;DHT22;8463;48.094;7.970;2022-08-21T08:24:19;21.80;23.10
2409;DHT22;8463;48.094;7.970;2022-08-21T08:26:46;22.00;24.50
2409;DHT22;8463;48.094;7.970;2022-08-21T08:31:37;22.50;19.30
2409;DHT22;8463;48.094;7.970;2022-08-21T08:34:03;22.50;18.30
2409;DHT22;8463;48.094;7.970;2022-08-21T08:36:34;22.90;19.60
2409;DHT22;8463;48.094;7.970;2022-08-21T08:39:01;22.90;17.90
2409;DHT22;8463;48.094;7.970;2022-08-21T08:41:28;23.20;17.00
2409;DHT22;8463;48.094;7.970;2022-08-21T08:43:59;23.20;14.60
2409;DHT22;8463;48.094;7.970;2022-08-21T08:46:47;23.20;13.20
2409;DHT22;8463;48.094;7.970;2022-08-21T08:49:20;23.00;14.20
2409;DHT22;8463;48.094;7.970;2022-08-21T08:51:55;22.70;15.50
2409;DHT22;8463;48.094;7.970;2022-08-21T08:54:29;22.60;15.10
2409;DHT22;8463;48.094;7.970;2022-08-21T08:57:02;22.60;17.10
2409;DHT22;8463;48.094;7.970;2022-08-21T08:59:41;22.60;16.60
2409;DHT22;8463;48.094;7.970;2022-08-21T09:02:09;22.50;17.80
2409;DHT22;8463;48.094;7.970;2022-08-21T09:04:36;22.60;17.60
2409;DHT22;8463;48.094;7.970;2022-08-21T09:15:33;22.50;19.30
2409;DHT22;8463;48.094;7.970;2022-08-21T09:24:01;23.10;16.90
2409;DHT22;8463;48.094;7.970;2022-08-21T09:26:47;23.20;15.80
2409;DHT22;8463;48.094;7.970;2022-08-21T09:29:19;23.10;15.90
2409;DHT22;8463;48.094;7.970;2022-08-21T09:34:12;23.40;16.50
2409;DHT22;8463;48.094;7.970;2022-08-21T09:36:44;23.50;16.10
2409;DHT22;8463;48.094;7.970;2022-08-21T09:39:25;23.50;15.10
2409;DHT22;8463;48.094;7.970;2022-08-21T09:42:03;23.50;16.10
2409;DHT22;8463;48.094;7.970;2022-08-21T09:44:33;23.80;15.00
2409;DHT22;8463;48.094;7.970;2022-08-21T09:49:37;24.00;14.50
2409;DHT22;8463;48.094;7.970;2022-08-21T09:52:17;23.90;14.30
2409;DHT22;8463;48.094;7.970;2022-08-21T09:54:45;24.00;14.20
2409;DHT22;8463;48.094;7.970;2022-08-21T09:57:22;24.20;14.30
2409;DHT22;8463;48.094;7.970;2022-08-21T10:00:29;24.20;14.50
2409;DHT22;8463;48.094;7.970;2022-08-21T10:03:17;24.50;12.90
2409;DHT22;8463;48.094;7.970;2022-08-21T10:06:10;24.80;11.80
2409;DHT22;8463;48.094;7.970;2022-08-21T10:08:47;24.80;14.00
2409;DHT22;8463;48.094;7.970;2022-08-21T10:11:15;24.90;11.40
2409;DHT22;8463;48.094;7.970;2022-08-21T10:16:56;24.90;10.90
2409;DHT22;8463;48.094;7.970;2022-08-21T10:19:36;24.90;12.20
2409;DHT22;8463;48.094;7.970;2022-08-21T10:30:08;25.30;8.00
2409;DHT22;8463;48.094;7.970;2022-08-21T10:35:33;25.60;7.90
2409;DHT22;8463;48.094;7.970;2022-08-21T10:40:59;26.30;5.70
2409;DHT22;8463;48.094;7.970;2022-08-21T10:49:54;25.90;7.20
2409;DHT22;8463;48.094;7.970;2022-08-21T10:52:42;25.90;7.40
2409;DHT22;8463;48.094;7.970;2022-08-21T10:55:18;25.90;5.40
2409;DHT22;8463;48.094;7.970;2022-08-21T10:58:10;26.10;5.00
2409;DHT22;8463;48.094;7.970;2022-08-21T11:00:47;26.10;4.10
2409;DHT22;8463;48.094;7.970;2022-08-21T11:03:32;25.80;4.60
2409;DHT22;8463;48.094;7.970;2022-08-21T11:08:50;25.90;3.70
2409;DHT22;8463;48.094;7.970;2022-08-21T11:11:31;26.20;3.80
2409;DHT22;8463;48.094;7.970;2022-08-21T11:14:24;26.60;3.60
2409;DHT22;8463;48.094;7.970;2022-08-21T11:17:11;26.30;1.50
2409;DHT22;8463;48.094;7.970;2022-08-21T11:19:48;26.30;2.10
2409;DHT22;8463;48.094;7.970;2022-08-21T11:22:38;26.50;1.60
2409;DHT22;8463;48.094;7.970;2022-08-21T11:25:20;26.50;1.50
2409;DHT22;8463;48.094;7.970;2022-08-21T11:27:54;26.40;1.20
2409;DHT22;8463;48.094;7.970;2022-08-21T11:30:23;26.60;1.30
2409;DHT22;8463;48.094;7.970;2022-08-21T11:33:03;27.00;1.00
2409;DHT22;8463;48.094;7.970;2022-08-21T11:38:28;27.10;1.00
2409;DHT22;8463;48.094;7.970;2022-08-21T11:41:32;26.90;1.00
2409;DHT22;8463;48.094;7.970;2022-08-21T11:44:22;26.90;3.20
2409;DHT22;8463;48.094;7.970;2022-08-21T11:57:23;26.90;1.00
2409;DHT22;8463;48.094;7.970;2022-08-21T12:00:39;26.70;1.00
2409;DHT22;8463;48.094;7.970;2022-08-21T12:02:51;27.40;1.00
2409;DHT22;8463;48.094;7.970;2022-08-21T12:05:39;27.80;1.00
2409;DHT22;8463;48.094;7.970;2022-08-21T12:08:33;28.30;1.00
2409;DHT22;8463;48.094;7.970;2022-08-21T12:13:37;27.80;1.00
2409;DHT22;8463;48.094;7.970;2022-08-21T12:16:11;27.90;1.00
2409;DHT22;8463;48.094;7.970;2022-08-21T12:18:37;27.90;1.00
2409;DHT22;8463;48.094;7.970;2022-08-21T12:23:48;27.40;1.00
2409;DHT22;8463;48.094;7.970;2022-08-21T12:26:20;27.70;1.00
2409;DHT22;8463;48.094;7.970;2022-08-21T12:28:47;27.80;1.00
2409;DHT22;8463;48.094;7.970;2022-08-21T12:31:25;27.60;1.00
2409;DHT22;8463;48.094;7.970;2022-08-21T12:33:58;27.80;1.00
2409;DHT22;8463;48.094;7.970;2022-08-21T12:36:55;28.20;1.00
2409;DHT22;8463;48.094;7.970;2022-08-21T12:39:23;28.70;1.00
2409;DHT22;8463;48.094;7.970;2022-08-21T12:41:59;28.40;1.00
2409;DHT22;8463;48.094;7.970;2022-08-21T12:44:42;28.10;1.00
2409;DHT22;8463;48.094;7.970;2022-08-21T12:47:33;27.70;1.00
2409;DHT22;8463;48.094;7.970;2022-08-21T12:52:40;28.30;1.00
2409;DHT22;8463;48.094;7.970;2022-08-21T12:55:11;27.90;1.00
2409;DHT22;8463;48.094;7.970;2022-08-21T12:57:40;27.70;1.00
2409;DHT22;8463;48.094;7.970;2022-08-21T13:00:07;27.90;1.00
2409;DHT22;8463;48.094;7.970;2022-08-21T13:02:43;27.70;1.00
2409;DHT22;8463;48.094;7.970;2022-08-21T13:05:15;27.60;1.00
2409;DHT22;8463;48.094;7.970;2022-08-21T13:07:46;28.00;1.00
2409;DHT22;8463;48.094;7.970;2022-08-21T13:10:25;28.50;1.00
2409;DHT22;8463;48.094;7.970;2022-08-21T13:12:55;28.50;1.00
2409;DHT22;8463;48.094;7.970;2022-08-21T13:15:29;28.30;1.00
2409;DHT22;8463;48.094;7.970;2022-08-21T13:17:55;28.10;1.00
2409;DHT22;8463;48.094;7.970;2022-08-21T13:20:30;27.90;1.00
2409;DHT22;8463;48.094;7.970;2022-08-21T13:22:56;28.00;1.00
2409;DHT22;8463;48.094;7.970;2022-08-21T13:25:27;27.90;1.00
2409;DHT22;8463;48.094;7.970;2022-08-21T13:28:05;28.00;1.00
2409;DHT22;8463;48.094;7.970;2022-08-21T13:30:31;27.90;1.00
2409;DHT22;8463;48.094;7.970;2022-08-21T13:33:00;27.50;1.00
2409;DHT22;8463;48.094;7.970;2022-08-21T13:35:51;27.50;1.00
2409;DHT22;8463;48.094;7.970;2022-08-21T13:38:20;27.70;1.00
2409;DHT22;8463;48.094;7.970;2022-08-21T13:40:50;27.70;1.00
2409;DHT22;8463;48.094;7.970;2022-08-21T13:43:22;27.80;1.00
2409;DHT22;8463;48.094;7.970;2022-08-21T13:45:53;27.50;1.00
2409;DHT22;8463;48.094;7.970;2022-08-21T13:48:21;27.60;1.00
2409;DHT22;8463;48.094;7.970;2022-08-21T13:50:47;27.90;1.00
2409;DHT22;8463;48.094;7.970;2022-08-21T13:55:48;27.90;1.00
2409;DHT22;8463;48.094;7.970;2022-08-21T13:58:27;27.70;1.00
2409;DHT22;8463;48.094;7.970;2022-08-21T14:00:54;27.90;1.00
2409;DHT22;8463;48.094;7.970;2022-08-21T14:05:53;28.70;1.00
2409;DHT22;8463;48.094;7.970;2022-08-21T14:08:31;29.00;1.00
2409;DHT22;8463;48.094;7.970;2022-08-21T14:10:58;29.50;1.00
2409;DHT22;8463;48.094;7.970;2022-08-21T14:13:38;29.60;1.00
2409;DHT22;8463;48.094;7.970;2022-08-21T14:16:42;29.90;1.00
2409;DHT22;8463;48.094;7.970;2022-08-21T14:19:20;29.70;1.00
2409;DHT22;8463;48.094;7.970;2022-08-21T14:21:46;28.90;1.00
2409;DHT22;8463;48.094;7.970;2022-08-21T14:24:39;28.70;1.00
2409;DHT22;8463;48.094;7.970;2022-08-21T14:27:05;28.50;1.00
2409;DHT22;8463;48.094;7.970;2022-08-21T14:29:38;28.40;1.00
2409;DHT22;8463;48.094;7.970;2022-08-21T14:32:37;29.10;1.00
2409;DHT22;8463;48.094;7.970;2022-08-21T14:35:03;28.80;1.00
2409;DHT22;8463;48.094;7.970;2022-08-21T14:37:29;28.50;1.00
2409;DHT22;8463;48.094;7.970;2022-08-21T14:39:54;28.20;1.00
2409;DHT22;8463;48.094;7.970;2022-08-21T14:42:20;28.60;1.00
2409;DHT22;8463;48.094;7.970;2022-08-21T14:44:46;28.70;1.00
2409;DHT22;8463;48.094;7.970;2022-08-21T14:47:12;28.90;1.00
2409;DHT22;8463;48.094;7.970;2022-08-21T14:49:38;28.80;1.00
2409;DHT22;8463;48.094;7.970;2022-08-21T14:52:04;28.80;1.00
2409;DHT22;8463;48.094;7.970;2022-08-21T14:54:30;28.30;1.00
2409;DHT22;8463;48.094;7.970;2022-08-21T14:57:05;28.30;1.00
2409;DHT22;8463;48.094;7.970;2022-08-21T14:59:32;28.50;1.00
2409;DHT22;8463;48.094;7.970;2022-08-21T15:01:58;28.70;1.00
2409;DHT22;8463;48.094;7.970;2022-08-21T15:06:50;29.10;1.00
2409;DHT22;8463;48.094;7.970;2022-08-21T15:09:16;29.70;1.00
2409;DHT22;8463;48.094;7.970;2022-08-21T15:11:41;29.40;1.00
2409;DHT22;8463;48.094;7.970;2022-08-21T15:14:11;29.10;1.00
2409;DHT22;8463;48.094;7.970;2022-08-21T15:16:40;28.50;1.00
2409;DHT22;8463;48.094;7.970;2022-08-21T15:19:07;28.10;1.00
2409;DHT22;8463;48.094;7.970;2022-08-21T15:21:32;28.20;1.00
2409;DHT22;8463;48.094;7.970;2022-08-21T15:23:58;28.10;1.00
2409;DHT22;8463;48.094;7.970;2022-08-21T15:26:24;28.20;1.00
2409;DHT22;8463;48.094;7.970;2022-08-21T15:28:50;28.80;1.00
2409;DHT22;8463;48.094;7.970;2022-08-21T15:31:16;29.00;1.00
2409;DHT22;8463;48.094;7.970;2022-08-21T15:33:41;28.90;1.00
2409;DHT22;8463;48.094;7.970;2022-08-21T15:36:07;28.60;1.00
2409;DHT22;8463;48.094;7.970;2022-08-21T15:38:33;28.80;1.00
2409;DHT22;8463;48.094;7.970;2022-08-21T15:40:58;29.10;1.00
2409;DHT22;8463;48.094;7.970;2022-08-21T15:43:31;29.60;1.00
2409;DHT22;8463;48.094;7.970;2022-08-21T15:45:59;29.90;1.00
2409;DHT22;8463;48.094;7.970;2022-08-21T15:48:26;30.10;1.00
2409;DHT22;8463;48.094;7.970;2022-08-21T15:50:51;30.10;1.00
2409;DHT22;8463;48.094;7.970;2022-08-21T15:53:17;30.00;1.00
2409;DHT22;8463;48.094;7.970;2022-08-21T15:55:43;30.20;1.00
2409;DHT22;8463;48.094;7.970;2022-08-21T15:58:14;30.40;1.00
2409;DHT22;8463;48.094;7.970;2022-08-21T16:00:41;30.70;1.00
2409;DHT22;8463;48.094;7.970;2022-08-21T16:03:11;30.90;1.00
2409;DHT22;8463;48.094;7.970;2022-08-21T16:08:05;30.10;1.00
2409;DHT22;8463;48.094;7.970;2022-08-21T16:10:31;29.90;1.00
2409;DHT22;8463;48.094;7.970;2022-08-21T16:13:00;29.90;1.00
2409;DHT22;8463;48.094;7.970;2022-08-21T16:15:27;29.60;1.00
2409;DHT22;8463;48.094;7.970;2022-08-21T16:17:53;29.30;1.00
2409;DHT22;8463;48.094;7.970;2022-08-21T16:20:25;29.40;1.00
2409;DHT22;8463;48.094;7.970;2022-08-21T16:22:53;29.40;1.00
2409;DHT22;8463;48.094;7.970;2022-08-21T16:25:20;29.10;1.00
2409;DHT22;8463;48.094;7.970;2022-08-21T16:30:15;29.10;1.00
2409;DHT22;8463;48.094;7.970;2022-08-21T16:32:41;29.00;1.00
2409;DHT22;8463;48.094;7.970;2022-08-21T16:35:11;29.10;1.00
2409;DHT22;8463;48.094;7.970;2022-08-21T16:37:38;29.10;1.00
2409;DHT22;8463;48.094;7.970;2022-08-21T16:40:04;29.10;1.00
2409;DHT22;8463;48.094;7.970;2022-08-21T16:42:30;29.10;1.00
2409;DHT22;8463;48.094;7.970;2022-08-21T16:44:56;28.90;1.00
2409;DHT22;8463;48.094;7.970;2022-08-21T16:47:22;28.70;1.00
2409;DHT22;8463;48.094;7.970;2022-08-21T16:49:48;28.30;1.00
2409;DHT22;8463;48.094;7.970;2022-08-21T16:52:15;28.10;1.00
2409;DHT22;8463;48.094;7.970;2022-08-21T16:54:41;27.90;1.00
2409;DHT22;8463;48.094;7.970;2022-08-21T16:57:08;27.90;1.00
2409;DHT22;8463;48.094;7.970;2022-08-21T16:59:34;27.80;1.00
2409;DHT22;8463;48.094;7.970;2022-08-21T17:04:26;27.50;1.00
2409;DHT22;8463;48.094;7.970;2022-08-21T17:06:53;27.20;1.00
2409;DHT22;8463;48.094;7.970;2022-08-21T17:09:19;26.80;1.00
2409;DHT22;8463;48.094;7.970;2022-08-21T17:11:46;26.20;4.00
2409;DHT22;8463;48.094;7.970;2022-08-21T17:14:19;26.00;5.00
2409;DHT22;8463;48.094;7.970;2022-08-21T17:16:50;25.90;5.60
2409;DHT22;8463;48.094;7.970;2022-08-21T17:19:17;25.80;5.50
2409;DHT22;8463;48.094;7.970;2022-08-21T17:21:42;25.50;7.60
2409;DHT22;8463;48.094;7.970;2022-08-21T17:24:08;25.40;8.10
2409;DHT22;8463;48.094;7.970;2022-08-21T17:26:35;25.20;9.20
2409;DHT22;8463;48.094;7.970;2022-08-21T17:31:28;25.10;11.00
2409;DHT22;8463;48.094;7.970;2022-08-21T17:33:54;25.00;11.00
2409;DHT22;8463;48.094;7.970;2022-08-21T17:36:22;25.00;11.40
2409;DHT22;8463;48.094;7.970;2022-08-21T17:38:48;25.10;10.80
2409;DHT22;8463;48.094;7.970;2022-08-21T17:41:15;25.00;9.20
2409;DHT22;8463;48.094;7.970;2022-08-21T17:43:41;25.10;9.70
2409;DHT22;8463;48.094;7.970;2022-08-21T17:46:18;25.30;10.20
2409;DHT22;8463;48.094;7.970;2022-08-21T17:48:44;25.00;10.40
2409;DHT22;8463;48.094;7.970;2022-08-21T17:51:10;25.00;10.60
2409;DHT22;8463;48.094;7.970;2022-08-21T17:53:37;25.00;10.80
2409;DHT22;8463;48.094;7.970;2022-08-21T17:56:03;25.00;11.00
2409;DHT22;8463;48.094;7.970;2022-08-21T17:58:30;24.80;12.10
2409;DHT22;8463;48.094;7.970;2022-08-21T18:00:56;24.80;12.30
2409;DHT22;8463;48.094;7.970;2022-08-21T18:03:22;24.90;11.90
2409;DHT22;8463;48.094;7.970;2022-08-21T18:05:50;24.90;11.90
2409;DHT22;8463;48.094;7.970;2022-08-21T18:10:46;25.10;11.60
2409;DHT22;8463;48.094;7.970;2022-08-21T18:13:14;25.10;11.00
2409;DHT22;8463;48.094;7.970;2022-08-21T18:15:46;25.10;10.60
2409;DHT22;8463;48.094;7.970;2022-08-21T18:18:13;25.10;10.20